sensor_id;sensor_type;location;lat;lon;timestamp;P1;durP1;ratioP1;P2;durP2;ratioP2
45318;SDS011;31057;48.498;32.260;2023-05-07T00:00:32;6.55;;;3.88;;
45318;SDS011;31057;48.498;32.260;2023-05-07T00:02:35;8.75;;;3.78;;
45318;SDS011;31057;48.498;32.260;2023-05-07T00:04:38;5.38;;;3.20;;
45318;SDS011;31057;48.498;32.260;2023-05-07T00:06:40;5.93;;;3.65;;
45318;SDS011;31057;48.498;32.260;2023-05-07T00:08:42;7.03;;;3.42;;
45318;SDS011;31057;48.498;32.260;2023-05-07T00:10:44;5.10;;;3.58;;
45318;SDS011;31057;48.498;32.260;2023-05-07T00:12:47;7.50;;;3.63;;
45318;SDS011;31057;48.498;32.260;2023-05-07T00:14:49;4.60;;;3.45;;
45318;SDS011;31057;48.498;32.260;2023-05-07T00:16:51;10.88;;;3.42;;
45318;SDS011;31057;48.498;32.260;2023-05-07T00:20:55;7.25;;;3.38;;
45318;SDS011;31057;48.498;32.260;2023-05-07T00:22:57;5.28;;;3.97;;
45318;SDS011;31057;48.498;32.260;2023-05-07T00:24:59;6.22;;;3.85;;
45318;SDS011;31057;48.498;32.260;2023-05-07T00:29:03;4.90;;;3.63;;
45318;SDS011;31057;48.498;32.260;2023-05-07T00:31:05;6.05;;;3.50;;
45318;SDS011;31057;48.498;32.260;2023-05-07T00:33:07;6.97;;;3.60;;
45318;SDS011;31057;48.498;32.260;2023-05-07T00:37:11;8.63;;;6.45;;
45318;SDS011;31057;48.498;32.260;2023-05-07T00:39:13;6.13;;;3.95;;
45318;SDS011;31057;48.498;32.260;2023-05-07T00:43:17;5.25;;;3.13;;
45318;SDS011;31057;48.498;32.260;2023-05-07T00:45:19;6.18;;;4.20;;
45318;SDS011;31057;48.498;32.260;2023-05-07T00:47:21;7.93;;;3.78;;
45318;SDS011;31057;48.498;32.260;2023-05-07T00:51:34;5.80;;;3.05;;
45318;SDS011;31057;48.498;32.260;2023-05-07T00:53:36;6.55;;;3.78;;
45318;SDS011;31057;48.498;32.260;2023-05-07T00:55:38;5.00;;;3.55;;
45318;SDS011;31057;48.498;32.260;2023-05-07T00:57:40;5.63;;;3.72;;
45318;SDS011;31057;48.498;32.260;2023-05-07T00:59:42;9.75;;;3.47;;
45318;SDS011;31057;48.498;32.260;2023-05-07T01:01:44;8.52;;;3.55;;
45318;SDS011;31057;48.498;32.260;2023-05-07T01:05:48;6.57;;;3.30;;
45318;SDS011;31057;48.498;32.260;2023-05-07T01:07:52;6.65;;;3.53;;
45318;SDS011;31057;48.498;32.260;2023-05-07T01:09:56;4.78;;;3.63;;
45318;SDS011;31057;48.498;32.260;2023-05-07T01:11:58;5.57;;;3.55;;
45318;SDS011;31057;48.498;32.260;2023-05-07T01:14:00;6.22;;;3.35;;
45318;SDS011;31057;48.498;32.260;2023-05-07T01:16:03;4.75;;;3.30;;
45318;SDS011;31057;48.498;32.260;2023-05-07T01:18:06;7.45;;;3.53;;
45318;SDS011;31057;48.498;32.260;2023-05-07T01:20:09;5.50;;;3.60;;
45318;SDS011;31057;48.498;32.260;2023-05-07T01:22:12;5.80;;;2.90;;
45318;SDS011;31057;48.498;32.260;2023-05-07T01:24:17;8.30;;;3.42;;
45318;SDS011;31057;48.498;32.260;2023-05-07T01:26:20;6.43;;;4.03;;
45318;SDS011;31057;48.498;32.260;2023-05-07T01:28:23;5.03;;;3.25;;
45318;SDS011;31057;48.498;32.260;2023-05-07T01:30:25;4.47;;;3.30;;
45318;SDS011;31057;48.498;32.260;2023-05-07T01:32:38;4.60;;;3.13;;
45318;SDS011;31057;48.498;32.260;2023-05-07T01:34:53;6.00;;;3.25;;
45318;SDS011;31057;48.498;32.260;2023-05-07T01:36:56;4.80;;;2.97;;
45318;SDS011;31057;48.498;32.260;2023-05-07T01:38:59;4.45;;;2.63;;
45318;SDS011;31057;48.498;32.260;2023-05-07T01:41:02;6.45;;;3.42;;
45318;SDS011;31057;48.498;32.260;2023-05-07T01:43:05;4.82;;;2.85;;
45318;SDS011;31057;48.498;32.260;2023-05-07T01:45:07;8.13;;;4.10;;
45318;SDS011;31057;48.498;32.260;2023-05-07T01:47:10;5.00;;;3.25;;
45318;SDS011;31057;48.498;32.260;2023-05-07T01:49:12;8.00;;;3.42;;
45318;SDS011;31057;48.498;32.260;2023-05-07T01:53:16;5.88;;;3.60;;
45318;SDS011;31057;48.498;32.260;2023-05-07T01:55:18;5.40;;;3.65;;
45318;SDS011;31057;48.498;32.260;2023-05-07T01:59:22;5.15;;;3.45;;
45318;SDS011;31057;48.498;32.260;2023-05-07T02:03:26;6.25;;;3.25;;
45318;SDS011;31057;48.498;32.260;2023-05-07T02:05:28;6.25;;;4.03;;
45318;SDS011;31057;48.498;32.260;2023-05-07T02:07:30;4.53;;;3.10;;
45318;SDS011;31057;48.498;32.260;2023-05-07T02:09:32;6.00;;;3.85;;
45318;SDS011;31057;48.498;32.260;2023-05-07T02:11:34;5.97;;;3.42;;
45318;SDS011;31057;48.498;32.260;2023-05-07T02:13:36;5.90;;;3.45;;
45318;SDS011;31057;48.498;32.260;2023-05-07T02:15:38;8.18;;;3.78;;
45318;SDS011;31057;48.498;32.260;2023-05-07T02:17:57;5.32;;;3.05;;
45318;SDS011;31057;48.498;32.260;2023-05-07T02:20:03;6.70;;;3.63;;
45318;SDS011;31057;48.498;32.260;2023-05-07T02:22:06;5.80;;;3.47;;
45318;SDS011;31057;48.498;32.260;2023-05-07T02:24:08;4.85;;;3.47;;
45318;SDS011;31057;48.498;32.260;2023-05-07T02:26:10;7.68;;;4.00;;
45318;SDS011;31057;48.498;32.260;2023-05-07T02:30:14;5.93;;;3.75;;
45318;SDS011;31057;48.498;32.260;2023-05-07T02:34:18;4.85;;;3.90;;
45318;SDS011;31057;48.498;32.260;2023-05-07T02:36:20;6.28;;;3.28;;
45318;SDS011;31057;48.498;32.260;2023-05-07T02:38:22;7.30;;;4.07;;
45318;SDS011;31057;48.498;32.260;2023-05-07T02:40:24;6.20;;;4.25;;
45318;SDS011;31057;48.498;32.260;2023-05-07T02:42:26;5.47;;;2.90;;
45318;SDS011;31057;48.498;32.260;2023-05-07T02:44:28;8.00;;;3.63;;
45318;SDS011;31057;48.498;32.260;2023-05-07T02:46:32;7.53;;;4.03;;
45318;SDS011;31057;48.498;32.260;2023-05-07T02:48:34;5.93;;;3.78;;
45318;SDS011;31057;48.498;32.260;2023-05-07T02:52:38;5.82;;;3.28;;
45318;SDS011;31057;48.498;32.260;2023-05-07T02:54:40;5.70;;;3.40;;
45318;SDS011;31057;48.498;32.260;2023-05-07T02:56:42;6.43;;;3.88;;
45318;SDS011;31057;48.498;32.260;2023-05-07T02:58:44;5.13;;;3.50;;
45318;SDS011;31057;48.498;32.260;2023-05-07T03:00:46;5.38;;;3.90;;
45318;SDS011;31057;48.498;32.260;2023-05-07T03:02:48;9.77;;;4.10;;
45318;SDS011;31057;48.498;32.260;2023-05-07T03:04:50;6.32;;;3.90;;
45318;SDS011;31057;48.498;32.260;2023-05-07T03:06:53;4.22;;;3.10;;
45318;SDS011;31057;48.498;32.260;2023-05-07T03:08:54;6.25;;;3.80;;
45318;SDS011;31057;48.498;32.260;2023-05-07T03:10:56;11.77;;;3.53;;
45318;SDS011;31057;48.498;32.260;2023-05-07T03:12:58;8.38;;;4.90;;
45318;SDS011;31057;48.498;32.260;2023-05-07T03:15:02;10.20;;;6.70;;
45318;SDS011;31057;48.498;32.260;2023-05-07T03:19:06;21.73;;;10.85;;
45318;SDS011;31057;48.498;32.260;2023-05-07T03:21:08;12.73;;;7.53;;
45318;SDS011;31057;48.498;32.260;2023-05-07T03:23:10;25.98;;;13.02;;
45318;SDS011;31057;48.498;32.260;2023-05-07T03:25:12;13.38;;;7.75;;
45318;SDS011;31057;48.498;32.260;2023-05-07T03:27:15;9.00;;;5.07;;
45318;SDS011;31057;48.498;32.260;2023-05-07T03:29:17;8.68;;;6.07;;
45318;SDS011;31057;48.498;32.260;2023-05-07T03:31:19;9.27;;;4.53;;
45318;SDS011;31057;48.498;32.260;2023-05-07T03:33:21;6.07;;;3.80;;
45318;SDS011;31057;48.498;32.260;2023-05-07T03:35:23;7.57;;;3.70;;
45318;SDS011;31057;48.498;32.260;2023-05-07T03:37:25;7.60;;;3.92;;
45318;SDS011;31057;48.498;32.260;2023-05-07T03:39:26;7.72;;;4.55;;
45318;SDS011;31057;48.498;32.260;2023-05-07T03:41:28;4.47;;;3.20;;
45318;SDS011;31057;48.498;32.260;2023-05-07T03:43:31;13.00;;;4.20;;
45318;SDS011;31057;48.498;32.260;2023-05-07T03:45:32;5.28;;;3.72;;
45318;SDS011;31057;48.498;32.260;2023-05-07T03:47:34;3.95;;;2.83;;
45318;SDS011;31057;48.498;32.260;2023-05-07T03:51:38;6.00;;;4.17;;
45318;SDS011;31057;48.498;32.260;2023-05-07T03:53:40;8.18;;;3.90;;
45318;SDS011;31057;48.498;32.260;2023-05-07T03:57:44;5.50;;;3.63;;
45318;SDS011;31057;48.498;32.260;2023-05-07T03:59:46;8.90;;;3.53;;
45318;SDS011;31057;48.498;32.260;2023-05-07T04:01:48;5.18;;;3.70;;
45318;SDS011;31057;48.498;32.260;2023-05-07T04:03:50;6.07;;;3.45;;
45318;SDS011;31057;48.498;32.260;2023-05-07T04:05:52;5.53;;;3.47;;
45318;SDS011;31057;48.498;32.260;2023-05-07T04:07:54;7.20;;;3.72;;
45318;SDS011;31057;48.498;32.260;2023-05-07T04:09:56;5.03;;;3.08;;
45318;SDS011;31057;48.498;32.260;2023-05-07T04:11:58;7.18;;;3.50;;
45318;SDS011;31057;48.498;32.260;2023-05-07T04:14:00;4.55;;;2.85;;
45318;SDS011;31057;48.498;32.260;2023-05-07T04:18:05;9.38;;;3.30;;
45318;SDS011;31057;48.498;32.260;2023-05-07T04:20:10;16.30;;;4.40;;
45318;SDS011;31057;48.498;32.260;2023-05-07T04:22:17;8.70;;;3.38;;
45318;SDS011;31057;48.498;32.260;2023-05-07T04:24:19;6.82;;;4.00;;
45318;SDS011;31057;48.498;32.260;2023-05-07T04:26:21;5.65;;;3.55;;
45318;SDS011;31057;48.498;32.260;2023-05-07T04:28:24;5.85;;;4.00;;
45318;SDS011;31057;48.498;32.260;2023-05-07T04:30:27;6.18;;;4.47;;
45318;SDS011;31057;48.498;32.260;2023-05-07T04:32:29;4.88;;;3.15;;
45318;SDS011;31057;48.498;32.260;2023-05-07T04:34:31;4.18;;;3.53;;
45318;SDS011;31057;48.498;32.260;2023-05-07T04:36:33;5.03;;;2.53;;
45318;SDS011;31057;48.498;32.260;2023-05-07T04:40:37;3.57;;;2.63;;
45318;SDS011;31057;48.498;32.260;2023-05-07T04:42:40;7.47;;;3.40;;
45318;SDS011;31057;48.498;32.260;2023-05-07T04:44:42;5.82;;;3.35;;
45318;SDS011;31057;48.498;32.260;2023-05-07T04:46:46;4.13;;;2.53;;
45318;SDS011;31057;48.498;32.260;2023-05-07T04:48:48;5.47;;;3.60;;
45318;SDS011;31057;48.498;32.260;2023-05-07T04:50:50;6.45;;;4.47;;
45318;SDS011;31057;48.498;32.260;2023-05-07T04:52:52;6.57;;;4.03;;
45318;SDS011;31057;48.498;32.260;2023-05-07T04:54:54;8.38;;;4.00;;
45318;SDS011;31057;48.498;32.260;2023-05-07T04:56:56;6.57;;;3.80;;
45318;SDS011;31057;48.498;32.260;2023-05-07T04:58:58;6.10;;;3.72;;
45318;SDS011;31057;48.498;32.260;2023-05-07T05:00:59;6.57;;;4.55;;
45318;SDS011;31057;48.498;32.260;2023-05-07T05:03:02;7.80;;;4.05;;
45318;SDS011;31057;48.498;32.260;2023-05-07T05:05:05;7.88;;;4.40;;
45318;SDS011;31057;48.498;32.260;2023-05-07T05:07:07;12.65;;;4.28;;
45318;SDS011;31057;48.498;32.260;2023-05-07T05:09:09;5.85;;;3.83;;
45318;SDS011;31057;48.498;32.260;2023-05-07T05:11:11;6.68;;;3.95;;
45318;SDS011;31057;48.498;32.260;2023-05-07T05:13:13;6.45;;;3.67;;
45318;SDS011;31057;48.498;32.260;2023-05-07T05:15:14;7.78;;;4.35;;
45318;SDS011;31057;48.498;32.260;2023-05-07T05:17:16;7.50;;;4.68;;
45318;SDS011;31057;48.498;32.260;2023-05-07T05:19:18;6.57;;;4.57;;
45318;SDS011;31057;48.498;32.260;2023-05-07T05:21:20;6.13;;;3.30;;
45318;SDS011;31057;48.498;32.260;2023-05-07T05:25:24;6.55;;;3.30;;
45318;SDS011;31057;48.498;32.260;2023-05-07T05:27:26;2.80;;;2.13;;
45318;SDS011;31057;48.498;32.260;2023-05-07T05:29:28;9.32;;;4.65;;
45318;SDS011;31057;48.498;32.260;2023-05-07T05:31:31;6.30;;;3.97;;
45318;SDS011;31057;48.498;32.260;2023-05-07T05:33:33;8.45;;;3.67;;
45318;SDS011;31057;48.498;32.260;2023-05-07T05:35:35;5.97;;;3.35;;
45318;SDS011;31057;48.498;32.260;2023-05-07T05:37:38;5.30;;;3.25;;
45318;SDS011;31057;48.498;32.260;2023-05-07T05:39:40;4.05;;;3.13;;
45318;SDS011;31057;48.498;32.260;2023-05-07T05:41:42;7.80;;;4.00;;
45318;SDS011;31057;48.498;32.260;2023-05-07T05:43:44;5.22;;;3.50;;
45318;SDS011;31057;48.498;32.260;2023-05-07T05:45:46;8.27;;;4.55;;
45318;SDS011;31057;48.498;32.260;2023-05-07T05:47:48;9.07;;;4.75;;
45318;SDS011;31057;48.498;32.260;2023-05-07T05:49:50;8.18;;;4.03;;
45318;SDS011;31057;48.498;32.260;2023-05-07T05:51:52;6.75;;;3.50;;
45318;SDS011;31057;48.498;32.260;2023-05-07T05:53:54;8.30;;;4.72;;
45318;SDS011;31057;48.498;32.260;2023-05-07T05:55:56;6.20;;;3.58;;
45318;SDS011;31057;48.498;32.260;2023-05-07T05:57:59;4.65;;;3.20;;
45318;SDS011;31057;48.498;32.260;2023-05-07T06:00:04;5.07;;;3.58;;
45318;SDS011;31057;48.498;32.260;2023-05-07T06:02:06;4.07;;;2.50;;
45318;SDS011;31057;48.498;32.260;2023-05-07T06:06:10;9.15;;;4.30;;
45318;SDS011;31057;48.498;32.260;2023-05-07T06:08:12;4.63;;;3.47;;
45318;SDS011;31057;48.498;32.260;2023-05-07T06:10:14;8.48;;;3.60;;
45318;SDS011;31057;48.498;32.260;2023-05-07T06:12:16;5.72;;;4.00;;
45318;SDS011;31057;48.498;32.260;2023-05-07T06:14:18;6.18;;;3.70;;
45318;SDS011;31057;48.498;32.260;2023-05-07T06:16:20;14.80;;;3.67;;
45318;SDS011;31057;48.498;32.260;2023-05-07T06:18:22;6.25;;;4.05;;
45318;SDS011;31057;48.498;32.260;2023-05-07T06:20:24;40.30;;;3.42;;
45318;SDS011;31057;48.498;32.260;2023-05-07T06:22:26;6.60;;;3.45;;
45318;SDS011;31057;48.498;32.260;2023-05-07T06:24:28;6.70;;;3.83;;
45318;SDS011;31057;48.498;32.260;2023-05-07T06:26:30;4.80;;;3.53;;
45318;SDS011;31057;48.498;32.260;2023-05-07T06:28:32;5.20;;;4.05;;
45318;SDS011;31057;48.498;32.260;2023-05-07T06:30:37;8.90;;;4.30;;
45318;SDS011;31057;48.498;32.260;2023-05-07T06:32:40;8.85;;;3.70;;
45318;SDS011;31057;48.498;32.260;2023-05-07T06:34:42;5.55;;;3.33;;
45318;SDS011;31057;48.498;32.260;2023-05-07T06:36:44;5.55;;;3.13;;
45318;SDS011;31057;48.498;32.260;2023-05-07T06:38:46;5.10;;;3.10;;
45318;SDS011;31057;48.498;32.260;2023-05-07T06:40:49;3.70;;;2.60;;
45318;SDS011;31057;48.498;32.260;2023-05-07T06:42:50;5.57;;;3.15;;
45318;SDS011;31057;48.498;32.260;2023-05-07T06:44:52;7.25;;;3.53;;
45318;SDS011;31057;48.498;32.260;2023-05-07T06:46:54;5.40;;;2.90;;
45318;SDS011;31057;48.498;32.260;2023-05-07T06:48:56;6.43;;;3.55;;
45318;SDS011;31057;48.498;32.260;2023-05-07T06:50:58;6.22;;;3.17;;
45318;SDS011;31057;48.498;32.260;2023-05-07T06:53:01;12.65;;;3.38;;
45318;SDS011;31057;48.498;32.260;2023-05-07T06:55:02;4.57;;;3.25;;
45318;SDS011;31057;48.498;32.260;2023-05-07T06:57:05;9.30;;;3.40;;
45318;SDS011;31057;48.498;32.260;2023-05-07T06:59:07;5.95;;;3.47;;
45318;SDS011;31057;48.498;32.260;2023-05-07T07:01:09;7.65;;;3.63;;
45318;SDS011;31057;48.498;32.260;2023-05-07T07:03:11;9.05;;;3.05;;
45318;SDS011;31057;48.498;32.260;2023-05-07T07:05:13;6.55;;;3.20;;
45318;SDS011;31057;48.498;32.260;2023-05-07T07:07:15;7.03;;;4.45;;
45318;SDS011;31057;48.498;32.260;2023-05-07T07:11:18;8.93;;;5.03;;
45318;SDS011;31057;48.498;32.260;2023-05-07T07:13:22;4.47;;;2.88;;
45318;SDS011;31057;48.498;32.260;2023-05-07T07:17:26;9.82;;;3.17;;
45318;SDS011;31057;48.498;32.260;2023-05-07T07:19:28;6.55;;;3.75;;
45318;SDS011;31057;48.498;32.260;2023-05-07T07:21:30;10.38;;;3.05;;
45318;SDS011;31057;48.498;32.260;2023-05-07T07:23:32;8.57;;;4.35;;
45318;SDS011;31057;48.498;32.260;2023-05-07T07:25:34;5.78;;;3.10;;
45318;SDS011;31057;48.498;32.260;2023-05-07T07:27:36;5.47;;;2.63;;
45318;SDS011;31057;48.498;32.260;2023-05-07T07:29:38;6.53;;;3.22;;
45318;SDS011;31057;48.498;32.260;2023-05-07T07:31:40;8.60;;;2.22;;
45318;SDS011;31057;48.498;32.260;2023-05-07T07:33:42;7.22;;;3.45;;
45318;SDS011;31057;48.498;32.260;2023-05-07T07:35:47;4.95;;;3.05;;
45318;SDS011;31057;48.498;32.260;2023-05-07T07:37:49;4.30;;;2.35;;
45318;SDS011;31057;48.498;32.260;2023-05-07T07:41:53;7.90;;;3.25;;
45318;SDS011;31057;48.498;32.260;2023-05-07T07:43:55;8.95;;;3.30;;
45318;SDS011;31057;48.498;32.260;2023-05-07T07:45:57;6.78;;;3.47;;
45318;SDS011;31057;48.498;32.260;2023-05-07T07:47:58;6.25;;;3.33;;
45318;SDS011;31057;48.498;32.260;2023-05-07T07:50:00;12.38;;;3.15;;
45318;SDS011;31057;48.498;32.260;2023-05-07T07:52:02;5.20;;;3.08;;
45318;SDS011;31057;48.498;32.260;2023-05-07T07:54:05;6.88;;;3.63;;
45318;SDS011;31057;48.498;32.260;2023-05-07T07:56:06;7.20;;;2.75;;
45318;SDS011;31057;48.498;32.260;2023-05-07T07:58:09;7.38;;;3.15;;
45318;SDS011;31057;48.498;32.260;2023-05-07T08:00:11;4.78;;;2.92;;
45318;SDS011;31057;48.498;32.260;2023-05-07T08:02:14;5.28;;;2.88;;
45318;SDS011;31057;48.498;32.260;2023-05-07T08:04:16;4.18;;;2.42;;
45318;SDS011;31057;48.498;32.260;2023-05-07T08:06:18;7.47;;;2.70;;
45318;SDS011;31057;48.498;32.260;2023-05-07T08:08:20;10.00;;;2.53;;
45318;SDS011;31057;48.498;32.260;2023-05-07T08:12:24;4.45;;;2.75;;
45318;SDS011;31057;48.498;32.260;2023-05-07T08:14:26;7.38;;;3.00;;
45318;SDS011;31057;48.498;32.260;2023-05-07T08:16:29;4.53;;;2.40;;
45318;SDS011;31057;48.498;32.260;2023-05-07T08:20:33;5.95;;;3.15;;
45318;SDS011;31057;48.498;32.260;2023-05-07T08:22:40;6.25;;;2.78;;
45318;SDS011;31057;48.498;32.260;2023-05-07T08:24:42;8.65;;;2.85;;
45318;SDS011;31057;48.498;32.260;2023-05-07T08:26:44;16.55;;;4.85;;
45318;SDS011;31057;48.498;32.260;2023-05-07T08:28:48;10.50;;;3.28;;
45318;SDS011;31057;48.498;32.260;2023-05-07T08:30:50;10.20;;;3.35;;
45318;SDS011;31057;48.498;32.260;2023-05-07T08:32:52;6.53;;;2.80;;
45318;SDS011;31057;48.498;32.260;2023-05-07T08:34:54;8.55;;;2.60;;
45318;SDS011;31057;48.498;32.260;2023-05-07T08:36:58;5.22;;;2.45;;
45318;SDS011;31057;48.498;32.260;2023-05-07T08:39:00;5.43;;;2.38;;
45318;SDS011;31057;48.498;32.260;2023-05-07T08:41:03;8.48;;;3.55;;
45318;SDS011;31057;48.498;32.260;2023-05-07T08:43:06;6.30;;;2.40;;
45318;SDS011;31057;48.498;32.260;2023-05-07T08:45:09;4.05;;;2.30;;
45318;SDS011;31057;48.498;32.260;2023-05-07T08:47:12;5.53;;;2.63;;
45318;SDS011;31057;48.498;32.260;2023-05-07T08:49:15;6.80;;;2.50;;
45318;SDS011;31057;48.498;32.260;2023-05-07T08:51:19;9.80;;;3.42;;
45318;SDS011;31057;48.498;32.260;2023-05-07T08:53:22;6.70;;;2.83;;
45318;SDS011;31057;48.498;32.260;2023-05-07T08:57:26;4.28;;;3.03;;
45318;SDS011;31057;48.498;32.260;2023-05-07T08:59:29;8.38;;;3.08;;
45318;SDS011;31057;48.498;32.260;2023-05-07T09:01:32;4.05;;;2.00;;
45318;SDS011;31057;48.498;32.260;2023-05-07T09:03:38;3.47;;;2.13;;
45318;SDS011;31057;48.498;32.260;2023-05-07T09:05:41;4.88;;;2.10;;
45318;SDS011;31057;48.498;32.260;2023-05-07T09:07:45;5.10;;;3.03;;
45318;SDS011;31057;48.498;32.260;2023-05-07T09:09:47;4.50;;;2.60;;
45318;SDS011;31057;48.498;32.260;2023-05-07T09:13:57;4.22;;;2.55;;
45318;SDS011;31057;48.498;32.260;2023-05-07T09:16:11;7.13;;;2.80;;
45318;SDS011;31057;48.498;32.260;2023-05-07T09:18:14;7.55;;;3.17;;
45318;SDS011;31057;48.498;32.260;2023-05-07T09:20:17;2.65;;;2.30;;
45318;SDS011;31057;48.498;32.260;2023-05-07T09:22:19;4.10;;;2.83;;
45318;SDS011;31057;48.498;32.260;2023-05-07T09:24:21;4.60;;;2.45;;
45318;SDS011;31057;48.498;32.260;2023-05-07T09:26:23;7.55;;;3.25;;
45318;SDS011;31057;48.498;32.260;2023-05-07T09:28:26;5.93;;;2.30;;
45318;SDS011;31057;48.498;32.260;2023-05-07T09:30:28;3.75;;;2.10;;
45318;SDS011;31057;48.498;32.260;2023-05-07T09:32:34;3.00;;;2.35;;
45318;SDS011;31057;48.498;32.260;2023-05-07T09:34:39;3.92;;;2.25;;
45318;SDS011;31057;48.498;32.260;2023-05-07T09:36:42;8.07;;;2.95;;
45318;SDS011;31057;48.498;32.260;2023-05-07T09:38:45;5.35;;;2.50;;
45318;SDS011;31057;48.498;32.260;2023-05-07T09:40:47;5.32;;;2.80;;
45318;SDS011;31057;48.498;32.260;2023-05-07T09:43:08;6.47;;;2.90;;
45318;SDS011;31057;48.498;32.260;2023-05-07T09:45:12;8.68;;;3.35;;
45318;SDS011;31057;48.498;32.260;2023-05-07T09:47:16;6.82;;;3.45;;
45318;SDS011;31057;48.498;32.260;2023-05-07T09:49:23;3.90;;;2.38;;
45318;SDS011;31057;48.498;32.260;2023-05-07T09:52:09;5.43;;;2.55;;
45318;SDS011;31057;48.498;32.260;2023-05-07T09:53:52;10.80;;;3.35;;
45318;SDS011;31057;48.498;32.260;2023-05-07T09:55:55;5.78;;;2.85;;
45318;SDS011;31057;48.498;32.260;2023-05-07T09:57:58;6.68;;;3.03;;
45318;SDS011;31057;48.498;32.260;2023-05-07T10:00:03;9.70;;;3.67;;
45318;SDS011;31057;48.498;32.260;2023-05-07T10:02:07;8.82;;;3.22;;
45318;SDS011;31057;48.498;32.260;2023-05-07T10:04:11;6.03;;;2.83;;
45318;SDS011;31057;48.498;32.260;2023-05-07T10:06:15;6.68;;;3.15;;
45318;SDS011;31057;48.498;32.260;2023-05-07T10:08:17;8.63;;;3.40;;
45318;SDS011;31057;48.498;32.260;2023-05-07T10:10:21;4.72;;;3.00;;
45318;SDS011;31057;48.498;32.260;2023-05-07T10:12:25;6.40;;;2.90;;
45318;SDS011;31057;48.498;32.260;2023-05-07T10:14:27;8.60;;;3.08;;
45318;SDS011;31057;48.498;32.260;2023-05-07T10:16:31;5.22;;;2.65;;
45318;SDS011;31057;48.498;32.260;2023-05-07T10:18:34;5.70;;;3.15;;
45318;SDS011;31057;48.498;32.260;2023-05-07T10:22:43;9.60;;;3.10;;
45318;SDS011;31057;48.498;32.260;2023-05-07T10:24:46;4.68;;;3.63;;
45318;SDS011;31057;48.498;32.260;2023-05-07T10:26:54;7.22;;;3.10;;
45318;SDS011;31057;48.498;32.260;2023-05-07T10:28:59;5.22;;;2.72;;
45318;SDS011;31057;48.498;32.260;2023-05-07T10:33:46;6.30;;;3.42;;
45318;SDS011;31057;48.498;32.260;2023-05-07T10:35:52;6.25;;;3.40;;
45318;SDS011;31057;48.498;32.260;2023-05-07T10:37:59;4.60;;;2.78;;
45318;SDS011;31057;48.498;32.260;2023-05-07T10:42:10;6.40;;;3.00;;
45318;SDS011;31057;48.498;32.260;2023-05-07T10:44:29;4.80;;;3.00;;
45318;SDS011;31057;48.498;32.260;2023-05-07T10:46:31;6.13;;;4.03;;
45318;SDS011;31057;48.498;32.260;2023-05-07T10:51:20;6.30;;;2.75;;
45318;SDS011;31057;48.498;32.260;2023-05-07T10:53:24;5.78;;;2.78;;
45318;SDS011;31057;48.498;32.260;2023-05-07T10:55:28;6.50;;;2.78;;
45318;SDS011;31057;48.498;32.260;2023-05-07T10:59:33;4.28;;;3.00;;
45318;SDS011;31057;48.498;32.260;2023-05-07T11:01:52;6.82;;;2.40;;
45318;SDS011;31057;48.498;32.260;2023-05-07T11:04:12;4.60;;;2.50;;
45318;SDS011;31057;48.498;32.260;2023-05-07T11:06:15;3.40;;;2.42;;
45318;SDS011;31057;48.498;32.260;2023-05-07T11:08:17;5.55;;;2.42;;
45318;SDS011;31057;48.498;32.260;2023-05-07T11:10:19;4.53;;;2.08;;
45318;SDS011;31057;48.498;32.260;2023-05-07T11:14:44;5.63;;;2.50;;
45318;SDS011;31057;48.498;32.260;2023-05-07T11:16:47;3.63;;;2.75;;
45318;SDS011;31057;48.498;32.260;2023-05-07T11:18:53;3.33;;;2.38;;
45318;SDS011;31057;48.498;32.260;2023-05-07T11:20:58;5.82;;;2.10;;
45318;SDS011;31057;48.498;32.260;2023-05-07T11:23:00;3.60;;;2.30;;
45318;SDS011;31057;48.498;32.260;2023-05-07T11:25:03;5.75;;;2.33;;
45318;SDS011;31057;48.498;32.260;2023-05-07T11:27:05;3.47;;;2.47;;
45318;SDS011;31057;48.498;32.260;2023-05-07T11:29:20;4.30;;;2.28;;
45318;SDS011;31057;48.498;32.260;2023-05-07T11:31:24;3.67;;;2.30;;
45318;SDS011;31057;48.498;32.260;2023-05-07T11:33:27;6.28;;;2.30;;
45318;SDS011;31057;48.498;32.260;2023-05-07T11:35:29;3.45;;;2.25;;
45318;SDS011;31057;48.498;32.260;2023-05-07T11:39:33;4.88;;;2.33;;
45318;SDS011;31057;48.498;32.260;2023-05-07T11:41:37;6.57;;;2.30;;
45318;SDS011;31057;48.498;32.260;2023-05-07T11:43:53;5.20;;;1.63;;
45318;SDS011;31057;48.498;32.260;2023-05-07T11:46:09;5.07;;;2.17;;
45318;SDS011;31057;48.498;32.260;2023-05-07T11:48:12;5.75;;;2.03;;
45318;SDS011;31057;48.498;32.260;2023-05-07T11:50:15;7.75;;;2.63;;
45318;SDS011;31057;48.498;32.260;2023-05-07T11:52:17;5.88;;;2.63;;
45318;SDS011;31057;48.498;32.260;2023-05-07T11:54:20;3.17;;;2.20;;
45318;SDS011;31057;48.498;32.260;2023-05-07T11:56:22;3.83;;;1.80;;
45318;SDS011;31057;48.498;32.260;2023-05-07T11:58:24;6.90;;;2.33;;
45318;SDS011;31057;48.498;32.260;2023-05-07T12:00:29;3.00;;;2.00;;
45318;SDS011;31057;48.498;32.260;2023-05-07T12:02:31;2.47;;;1.90;;
45318;SDS011;31057;48.498;32.260;2023-05-07T12:04:33;4.38;;;1.98;;
45318;SDS011;31057;48.498;32.260;2023-05-07T12:06:36;9.02;;;2.15;;
45318;SDS011;31057;48.498;32.260;2023-05-07T12:08:39;3.55;;;1.98;;
45318;SDS011;31057;48.498;32.260;2023-05-07T12:10:44;3.85;;;2.08;;
45318;SDS011;31057;48.498;32.260;2023-05-07T12:12:48;6.85;;;2.20;;
45318;SDS011;31057;48.498;32.260;2023-05-07T12:16:53;6.63;;;2.13;;
45318;SDS011;31057;48.498;32.260;2023-05-07T12:18:56;8.38;;;2.28;;
45318;SDS011;31057;48.498;32.260;2023-05-07T12:21:00;3.97;;;2.30;;
45318;SDS011;31057;48.498;32.260;2023-05-07T12:23:02;2.83;;;2.08;;
45318;SDS011;31057;48.498;32.260;2023-05-07T12:27:07;6.18;;;2.63;;
45318;SDS011;31057;48.498;32.260;2023-05-07T12:29:10;4.28;;;1.85;;
45318;SDS011;31057;48.498;32.260;2023-05-07T12:31:12;2.95;;;2.13;;
45318;SDS011;31057;48.498;32.260;2023-05-07T12:33:19;5.13;;;1.90;;
45318;SDS011;31057;48.498;32.260;2023-05-07T12:35:26;2.30;;;1.80;;
45318;SDS011;31057;48.498;32.260;2023-05-07T12:37:29;3.42;;;1.92;;
45318;SDS011;31057;48.498;32.260;2023-05-07T12:39:32;4.30;;;2.67;;
45318;SDS011;31057;48.498;32.260;2023-05-07T12:41:53;3.88;;;2.30;;
45318;SDS011;31057;48.498;32.260;2023-05-07T12:43:56;4.05;;;2.00;;
45318;SDS011;31057;48.498;32.260;2023-05-07T12:46:05;4.07;;;1.80;;
45318;SDS011;31057;48.498;32.260;2023-05-07T12:48:10;3.60;;;1.83;;
45318;SDS011;31057;48.498;32.260;2023-05-07T12:50:12;4.18;;;2.20;;
45318;SDS011;31057;48.498;32.260;2023-05-07T12:52:15;4.22;;;2.05;;
45318;SDS011;31057;48.498;32.260;2023-05-07T12:54:30;5.78;;;2.35;;
45318;SDS011;31057;48.498;32.260;2023-05-07T12:56:35;5.13;;;2.17;;
45318;SDS011;31057;48.498;32.260;2023-05-07T12:58:37;5.00;;;1.95;;
45318;SDS011;31057;48.498;32.260;2023-05-07T13:00:42;6.03;;;1.90;;
45318;SDS011;31057;48.498;32.260;2023-05-07T13:02:44;2.60;;;2.08;;
45318;SDS011;31057;48.498;32.260;2023-05-07T13:04:47;4.72;;;2.17;;
45318;SDS011;31057;48.498;32.260;2023-05-07T13:06:49;3.80;;;2.22;;
45318;SDS011;31057;48.498;32.260;2023-05-07T13:08:51;5.53;;;2.28;;
45318;SDS011;31057;48.498;32.260;2023-05-07T13:10:53;3.28;;;1.83;;
45318;SDS011;31057;48.498;32.260;2023-05-07T13:14:57;7.05;;;2.25;;
45318;SDS011;31057;48.498;32.260;2023-05-07T13:16:59;5.40;;;1.98;;
45318;SDS011;31057;48.498;32.260;2023-05-07T13:19:01;5.78;;;2.20;;
45318;SDS011;31057;48.498;32.260;2023-05-07T13:23:04;6.40;;;2.25;;
45318;SDS011;31057;48.498;32.260;2023-05-07T13:25:07;4.78;;;2.30;;
45318;SDS011;31057;48.498;32.260;2023-05-07T13:27:09;10.55;;;3.10;;